Decoded Metar for KRSL (RUSSELL in KS, USA) (IATA:RSL) | Meteo·Mobile Aviation Weather
aviador You're here:

KRSL Decoded Metar

RUSSELL in KS, USA
Report Time2019-06-18 15:10:00
UTC Time2019-06-18 15:36:04
Flight Rules ifr IFR
Wind200° at 03 kt
W.Decomp.*RWY 17: 2.8 kt HW 1.1 kt RCW
RWY 21: 2.9 kt HW 0.9 kt LCW
Visibility8047 m
Phenomena:Rain
Mist
Clouds:Broken 008 Hf
Overcast 050 Hf
Expected CloudBase > 400 ft AGL from Temp-Dew spread
Ceiling800 ft
Temp18°C (ISA +7)
Dew Point17°C (94% RH)
QNH1015 hPa
Density Alt2,844 ft
Elevation1,860 ft
Report Wrong Elevation
Raw Report
KRSL 181510Z AUTO 20003KT 5SM RA BR BKN008 OVC050 18/17 A2997 RMK
AO2 CIG 006V010 P0001 T01830172=

Extra information for KRSL:More info

Metar Taf Metar & Taf Last 4 Metars F.Rules Stats Wind Profile Meteogram Temp Stats Airport Information Weather charts Add Link Nearby VenuesMetar ALERT Operation Metar Decoded Social comments

AIRNAV info for KRSL